Time;durP1;ratioP1;P1;durP2;ratioP2;P2;SDS_P1;SDS_P2;PMS_P1;PMS_P2;Temp;Humidity;BMP_temperature;BMP_pressure;BME280_temperature;BME280_humidity;BME280_pressure;Samples;Min_cycle;Max_cycle;Signal;HPM_P1;HPM_P2
2022/08/06 00:02:35;;;;;;;11.13;3.80;;;;;;;13.23;53.64;101383.34;4990189;28;20109;-39
2022/08/06 00:05:03;;;;;;;8.57;3.63;;;;;;;13.20;53.28;101378.09;4987853;28;20080;-39
2022/08/06 00:07:33;;;;;;;9.50;4.20;;;;;;;13.15;54.19;101378.09;4989211;28;20050;-39
2022/08/06 00:10:16;;;;;;;10.30;4.20;;;;;;;13.13;53.95;101378.94;4984548;28;20112;-39
2022/08/06 00:12:43;;;;;;;10.38;4.10;;;;;;;13.09;54.63;101381.50;4989054;28;20053;-39
2022/08/06 00:15:12;;;;;;;10.85;3.80;;;;;;;13.07;54.22;101375.41;4988930;28;20129;-39
2022/08/06 00:17:42;;;;;;;10.60;4.18;;;;;;;13.03;54.44;101371.06;4989305;28;20493;-39
2022/08/06 00:20:15;;;;;;;10.77;4.30;;;;;;;13.02;55.06;101369.31;4988405;28;20049;-39
2022/08/06 00:22:57;;;;;;;10.27;4.35;;;;;;;12.98;54.16;101370.16;4986170;28;20125;-39
2022/08/06 00:25:25;;;;;;;13.63;4.30;;;;;;;12.96;55.18;101364.94;4987805;28;20058;-39
2022/08/06 00:27:54;;;;;;;9.43;4.32;;;;;;;12.93;55.14;101364.91;4988120;28;20049;-39
2022/08/06 00:30:23;;;;;;;9.05;3.88;;;;;;;12.91;54.33;101364.03;4989852;28;20113;-39
2022/08/06 00:32:52;;;;;;;13.70;5.00;;;;;;;12.88;54.32;101369.19;4989209;28;20510;-40
2022/08/06 00:35:21;;;;;;;10.57;3.85;;;;;;;12.85;54.41;101370.06;4986535;28;20050;-39
2022/08/06 00:37:54;;;;;;;12.02;4.50;;;;;;;12.82;54.88;101358.72;4988566;28;20502;-39
2022/08/06 00:40:29;;;;;;;12.00;4.45;;;;;;;12.77;55.44;101361.28;4986516;28;20077;-39
2022/08/06 00:42:58;;;;;;;12.98;4.63;;;;;;;12.74;55.29;101366.47;4986472;28;20469;-39
2022/08/06 00:45:29;;;;;;;15.55;4.90;;;;;;;12.68;55.38;101362.09;4987370;28;20057;-39
2022/08/06 00:47:58;;;;;;;12.43;4.55;;;;;;;12.66;54.82;101370.72;4987872;28;20482;-41
2022/08/06 00:50:31;;;;;;;11.35;4.32;;;;;;;12.62;54.91;101368.94;4988717;28;20490;-39
2022/08/06 00:53:00;;;;;;;11.48;4.72;;;;;;;12.58;55.60;101361.13;4989836;28;20042;-39
2022/08/06 00:55:28;;;;;;;13.82;5.78;;;;;;;12.54;55.75;101364.56;4988781;28;20046;-38
2022/08/06 00:58:02;;;;;;;11.23;4.63;;;;;;;12.52;55.03;101361.06;4987939;28;20137;-38
2022/08/06 01:00:29;;;;;;;14.93;4.68;;;;;;;12.47;55.16;101358.41;4983831;28;20049;-39
2022/08/06 01:03:03;;;;;;;11.35;4.57;;;;;;;12.46;55.87;101366.19;4986546;28;20050;-39
2022/08/06 01:05:30;;;;;;;11.52;4.38;;;;;;;12.44;55.48;101373.09;4989724;28;20101;-39
2022/08/06 01:08:17;;;;;;;12.57;4.57;;;;;;;12.40;55.47;101359.19;4986572;28;20132;-39
2022/08/06 01:10:43;;;;;;;13.10;4.57;;;;;;;12.39;55.44;101369.59;4985963;28;20510;-40
2022/08/06 01:13:11;;;;;;;12.00;4.75;;;;;;;12.37;55.43;101368.69;4989488;28;20172;-39
2022/08/06 01:16:09;;;;;;;13.77;5.70;;;;;;;12.30;56.74;101381.59;4984414;28;20137;-40
2022/08/06 01:18:53;;;;;;;12.07;4.88;;;;;;;12.27;56.99;101381.59;4986786;28;20054;-40
2022/08/06 01:29:39;;;;;;;16.27;7.25;;;;;;;12.76;56.74;101385.53;5036553;28;20406;-38
2022/08/06 01:32:11;;;;;;;18.00;6.22;;;;;;;12.41;57.92;101380.84;5015613;28;20145;-38
2022/08/06 01:34:46;;;;;;;11.85;4.95;;;;;;;12.33;57.40;101392.03;5022093;28;20053;-38
2022/08/06 01:37:24;;;;;;;17.17;6.00;;;;;;;12.28;57.38;101388.50;5019563;28;20053;-38
2022/08/06 01:39:56;;;;;;;12.18;5.47;;;;;;;12.24;57.26;101386.75;5024621;28;20049;-38
2022/08/06 01:42:30;;;;;;;16.55;5.00;;;;;;;12.21;57.53;101391.88;5021618;28;20665;-37
2022/08/06 01:45:05;;;;;;;12.95;5.85;;;;;;;12.16;57.17;101399.63;5021754;28;20037;-38
2022/08/06 01:47:33;;;;;;;15.70;5.30;;;;;;;12.13;57.27;101388.31;5023903;28;20050;-38
2022/08/06 01:50:26;;;;;;;13.18;5.63;;;;;;;12.07;57.63;101395.19;5017835;28;20069;-38
2022/08/06 01:52:57;;;;;;;12.80;5.30;;;;;;;12.05;57.56;101391.66;5015936;28;20046;-38
2022/08/06 01:55:29;;;;;;;17.20;5.43;;;;;;;12.03;57.81;101403.75;5016506;28;20441;-39
2022/08/06 01:58:21;;;;;;;13.27;5.05;;;;;;;11.97;57.55;101393.28;5015087;28;20077;-38
2022/08/06 02:00:57;;;;;;;13.25;5.07;;;;;;;11.96;56.83;101396.75;5016865;28;20060;-38
2022/08/06 02:03:32;;;;;;;14.52;5.63;;;;;;;11.95;57.70;101394.97;5015779;28;20054;-38
2022/08/06 02:06:21;;;;;;;12.80;5.38;;;;;;;11.91;57.77;101388.91;5019952;28;20494;-38
2022/08/06 02:08:58;;;;;;;13.23;5.97;;;;;;;11.90;57.90;101388.88;5022564;28;20073;-38
2022/08/06 02:11:53;;;;;;;13.75;4.63;;;;;;;11.86;58.33;101381.91;5017284;28;20474;-38
2022/08/06 02:14:34;;;;;;;13.15;4.53;;;;;;;11.83;58.59;101386.19;5019619;28;20050;-39
2022/08/06 02:17:03;;;;;;;15.18;5.53;;;;;;;11.81;57.71;101395.69;5011557;28;20104;-38
2022/08/06 02:19:44;;;;;;;16.17;6.28;;;;;;;11.78;57.62;101390.44;5015473;28;20053;-38
2022/08/06 02:22:28;;;;;;;15.35;5.90;;;;;;;11.76;57.62;101394.72;5012971;28;20058;-38
2022/08/06 02:25:00;;;;;;;12.73;4.97;;;;;;;11.74;57.59;101391.25;5015479;28;20046;-38
2022/08/06 02:27:29;;;;;;;15.18;5.75;;;;;;;11.72;58.54;101392.94;5018687;28;20062;-38
2022/08/06 02:30:11;;;;;;;15.68;5.28;;;;;;;11.69;58.45;101398.13;5020187;28;20049;-39
2022/08/06 02:32:38;;;;;;;14.82;6.03;;;;;;;11.67;58.78;101394.59;5020621;28;20042;-38
2022/08/06 02:35:09;;;;;;;14.18;5.18;;;;;;;11.66;57.51;101398.06;5016760;28;20053;-38
2022/08/06 02:37:46;;;;;;;12.43;5.28;;;;;;;11.64;58.47;101394.56;5019930;28;20116;-38
2022/08/06 02:40:35;;;;;;;13.20;5.38;;;;;;;11.61;57.86;101399.69;5009897;28;20685;-38
2022/08/06 02:43:15;;;;;;;12.82;5.20;;;;;;;11.57;58.21;101398.78;5002251;28;20046;-38
2022/08/06 02:45:55;;;;;;;16.98;5.60;;;;;;;11.54;58.54;101404.81;5007957;28;20069;-38
2022/08/06 02:51:23;;;;;;;12.60;5.13;;;;;;;11.53;58.57;101403.09;5028245;27;20394;-38
2022/08/06 02:54:22;;;;;;;14.50;5.65;;;;;;;11.50;58.43;101412.53;5013249;28;20073;-39
2022/08/06 02:56:54;;;;;;;13.55;5.13;;;;;;;11.49;58.22;101411.66;5020851;28;20067;-38
2022/08/06 02:59:31;;;;;;;14.90;5.28;;;;;;;11.46;58.35;101406.44;5018836;28;20045;-38
2022/08/06 03:02:10;;;;;;;13.63;5.10;;;;;;;11.44;58.82;101406.41;5014839;28;20050;-39
2022/08/06 03:04:44;;;;;;;14.68;5.75;;;;;;;11.43;58.37;101401.19;4999698;28;20050;-38
2022/08/06 03:07:26;;;;;;;16.45;6.03;;;;;;;11.40;58.45;101406.31;5021175;28;20042;-38
2022/08/06 03:09:59;;;;;;;15.23;5.65;;;;;;;11.41;58.75;101405.47;5018917;28;20048;-38
2022/08/06 03:12:26;;;;;;;11.93;5.00;;;;;;;11.40;59.06;101406.31;5000226;28;20128;-38
2022/08/06 03:15:06;;;;;;;16.27;5.95;;;;;;;11.38;59.32;101398.50;5015465;28;20056;-38
2022/08/06 03:17:44;;;;;;;18.48;5.45;;;;;;;11.35;58.60;101405.38;5005149;28;20053;-38
2022/08/06 03:20:15;;;;;;;17.08;5.47;;;;;;;11.33;59.30;101402.75;5002523;28;20065;-38
2022/08/06 03:22:46;;;;;;;15.57;6.00;;;;;;;11.30;59.62;101393.22;5005384;28;20046;-38
2022/08/06 03:25:15;;;;;;;15.55;5.63;;;;;;;11.29;59.19;101396.63;5006322;28;20046;-39
2022/08/06 03:27:44;;;;;;;13.95;5.97;;;;;;;11.26;58.92;101399.22;5005723;28;20359;-39
2022/08/06 03:30:13;;;;;;;14.38;6.05;;;;;;;11.25;59.27;101396.59;5000329;28;20050;-38
2022/08/06 03:33:04;;;;;;;15.45;5.07;;;;;;;11.21;59.15;101394.78;5005262;28;20053;-38
2022/08/06 03:35:54;;;;;;;15.70;7.28;;;;;;;11.16;59.70;101397.31;5002803;28;20513;-39
2022/08/06 03:38:23;;;;;;;14.10;5.95;;;;;;;11.15;59.42;101398.16;5000854;28;20053;-38
2022/08/06 03:40:56;;;;;;;15.13;6.45;;;;;;;11.14;60.10;101404.16;5004362;28;20064;-38
2022/08/06 03:43:23;;;;;;;13.98;5.68;;;;;;;11.12;59.16;101405.88;5006321;28;20050;-38
2022/08/06 03:45:59;;;;;;;13.65;5.80;;;;;;;11.11;59.48;101409.31;5006179;28;20050;-38
2022/08/06 03:48:31;;;;;;;18.83;5.95;;;;;;;11.08;59.67;101411.84;5019898;28;20053;-38
2022/08/06 03:51:09;;;;;;;14.05;6.45;;;;;;;11.05;59.62;101413.53;5001992;28;20387;-38
2022/08/06 03:53:37;;;;;;;18.52;6.60;;;;;;;11.03;59.68;101412.66;5005024;28;20050;-39
2022/08/06 03:56:23;;;;;;;16.10;5.78;;;;;;;11.00;59.30;101412.59;4999866;28;20502;-39
2022/08/06 03:59:01;;;;;;;15.10;5.68;;;;;;;11.03;59.50;101414.38;5005938;28;20552;-38
2022/08/06 04:01:35;;;;;;;17.30;5.57;;;;;;;11.02;60.33;101416.06;4996176;28;20046;-38
2022/08/06 04:04:18;;;;;;;15.88;5.25;;;;;;;11.01;59.83;101409.16;4992367;28;20498;-38
2022/08/06 04:06:56;;;;;;;15.85;5.88;;;;;;;11.00;60.59;101414.31;4992883;28;20659;-39
2022/08/06 04:09:25;;;;;;;16.92;6.50;;;;;;;10.99;60.43;101410.84;4988769;28;20046;-39
2022/08/06 04:12:14;;;;;;;15.90;5.75;;;;;;;10.97;60.28;101416.88;4988767;28;20078;-39
2022/08/06 04:15:01;;;;;;;17.00;6.25;;;;;;;10.94;60.47;101422.84;4989552;28;20124;-38
2022/08/06 04:17:37;;;;;;;16.05;6.22;;;;;;;10.93;60.83;101421.09;4988160;28;20050;-38
2022/08/06 04:20:11;;;;;;;14.57;6.20;;;;;;;10.94;60.38;101428.03;4991376;28;20495;-38
2022/08/06 04:22:38;;;;;;;16.52;5.70;;;;;;;10.94;61.06;101425.44;4991988;28;20038;-38
2022/08/06 04:25:28;;;;;;;17.63;5.95;;;;;;;10.92;60.67;101434.91;4992038;28;20066;-38
2022/08/06 04:27:55;;;;;;;17.23;6.25;;;;;;;10.91;60.74;101428.00;4991573;28;20046;-37
2022/08/06 04:30:26;;;;;;;18.38;6.55;;;;;;;10.92;60.61;101430.59;4991495;28;20128;-38
2022/08/06 04:32:53;;;;;;;17.60;6.00;;;;;;;10.91;61.37;101430.59;4992654;28;20108;-38
2022/08/06 04:35:29;;;;;;;15.52;6.20;;;;;;;10.89;60.55;101429.69;4991143;28;20410;-38
2022/08/06 04:38:18;;;;;;;18.63;6.60;;;;;;;10.90;61.50;101439.19;4989704;28;20637;-38
2022/08/06 04:40:56;;;;;;;15.98;6.47;;;;;;;10.89;60.77;101435.75;4987530;28;20058;-37
2022/08/06 04:43:23;;;;;;;14.60;5.03;;;;;;;10.90;61.38;101436.59;4989606;28;20042;-38
2022/08/06 04:46:10;;;;;;;14.68;6.05;;;;;;;10.90;61.50;101436.59;4989323;28;20105;-39
2022/08/06 04:48:44;;;;;;;16.05;6.28;;;;;;;10.89;61.54;101429.69;4990257;28;20038;-38
2022/08/06 04:51:14;;;;;;;17.67;6.65;;;;;;;10.90;61.10;101431.41;4992116;28;20094;-38
2022/08/06 04:54:05;;;;;;;18.35;5.85;;;;;;;10.89;60.78;101434.84;4990583;28;20136;-38
2022/08/06 04:56:32;;;;;;;19.48;6.25;;;;;;;10.89;60.90;101445.22;4990403;28;20054;-38
2022/08/06 04:59:04;;;;;;;17.52;6.55;;;;;;;10.88;61.23;101448.66;4990357;28;20050;-38
2022/08/06 05:01:33;;;;;;;;;;;;;;;10.73;61.70;101449.25;4989593;28;20054;-38
2022/08/06 05:04:19;;;;;;;16.52;5.70;;;;;;;10.84;60.89;101447.72;4991172;28;19926;-38
2022/08/06 05:06:59;;;;;;;18.95;6.55;;;;;;;10.86;61.54;101450.34;4991564;28;20694;-37
2022/08/06 05:09:28;;;;;;;17.25;6.45;;;;;;;10.85;61.59;101446.91;4990865;28;20474;-38
2022/08/06 05:12:18;;;;;;;17.73;6.05;;;;;;;10.88;61.75;101454.72;4989976;28;20084;-38
2022/08/06 05:14:55;;;;;;;18.38;6.00;;;;;;;10.91;61.18;101453.91;4990216;28;20058;-38
2022/08/06 05:17:25;;;;;;;17.02;6.78;;;;;;;10.94;61.32;101461.72;5006650;28;20053;-38
2022/08/06 05:20:09;;;;;;;20.33;6.18;;;;;;;10.95;61.19;101458.31;4987036;28;20049;-38
2022/08/06 05:22:55;;;;;;;15.98;6.20;;;;;;;10.99;61.93;101457.53;4991321;28;20052;-39
2022/08/06 05:25:29;;;;;;;18.38;6.53;;;;;;;11.03;61.69;101461.91;4974485;28;20050;-39
2022/08/06 05:28:03;;;;;;;19.83;7.00;;;;;;;11.10;62.04;101454.22;4990166;28;20129;-39
2022/08/06 05:30:47;;;;;;;18.98;7.03;;;;;;;11.14;61.58;101456.03;4986660;28;20051;-38
2022/08/06 05:33:32;;;;;;;21.70;6.93;;;;;;;11.22;62.35;101470.03;4989488;28;20046;-38
2022/08/06 05:36:07;;;;;;;17.67;6.35;;;;;;;11.35;62.65;101465.91;4990966;28;20043;-38
2022/08/06 05:38:45;;;;;;;15.00;6.43;;;;;;;11.44;62.43;101465.19;4989691;28;20514;-38
2022/08/06 05:41:26;;;;;;;18.85;7.47;;;;;;;11.54;61.74;101464.50;4987460;28;20395;-38
2022/08/06 05:43:56;;;;;;;20.20;8.40;;;;;;;11.65;62.38;101472.44;4989092;28;20454;-37
2022/08/06 05:46:34;;;;;;;16.88;6.28;;;;;;;11.77;62.29;101469.19;4988375;28;20058;-38
2022/08/06 05:49:07;;;;;;;16.33;6.95;;;;;;;11.91;62.96;101460.72;4989507;28;20077;-38
2022/08/06 05:57:23;;;;;;;19.52;8.57;;;;;;;12.38;61.79;101482.16;5027322;27;20405;-38
2022/08/06 06:00:12;;;;;;;18.50;8.90;;;;;;;12.53;61.76;101487.53;5003157;28;20042;-37
2022/08/06 06:03:03;;;;;;;17.95;8.40;;;;;;;12.69;62.41;101483.41;5008876;28;20132;-38
2022/08/06 06:05:31;;;;;;;19.60;8.30;;;;;;;12.83;62.35;101486.16;5006675;28;20081;-38
2022/08/06 06:08:19;;;;;;;18.63;8.63;;;;;;;12.98;61.47;101479.38;4998667;28;20074;-38
2022/08/06 06:11:08;;;;;;;16.38;8.23;;;;;;;13.04;60.55;101484.63;5005060;28;20074;-38
2022/08/06 06:13:38;;;;;;;21.85;8.80;;;;;;;13.04;61.45;101489.81;4999164;28;20069;-39
2022/08/06 06:16:29;;;;;;;17.50;8.43;;;;;;;13.04;60.92;101487.22;4997248;28;20120;-38
2022/08/06 06:24:40;;;;;;;20.83;8.90;;;;;;;13.39;61.42;101495.34;5026675;27;20402;-38
2022/08/06 06:29:59;;;;;;;17.60;7.40;;;;;;;13.28;62.46;101488.34;5033684;27;20394;-39
2022/08/06 06:56:26;;;;;;;13.98;5.03;;;;;;;16.96;58.43;101522.94;5041018;27;20727;-39
2022/08/06 06:59:04;;;;;;;13.00;4.93;;;;;;;17.28;57.50;101522.78;5019271;28;20441;-39
2022/08/06 07:01:44;;;;;;;10.40;4.65;;;;;;;17.59;57.60;101530.41;5023197;28;20050;-39
2022/08/06 07:04:23;;;;;;;10.73;4.32;;;;;;;17.90;56.26;101524.88;5018067;28;20057;-41
2022/08/06 07:06:56;;;;;;;10.55;4.18;;;;;;;18.18;55.88;101519.41;5018677;28;20065;-40
2022/08/06 07:09:35;;;;;;;9.85;4.32;;;;;;;18.53;55.50;101524.22;5012802;28;20061;-40
2022/08/06 07:12:12;;;;;;;11.57;3.60;;;;;;;18.88;54.55;101528.19;5013397;28;20064;-39
2022/08/06 07:14:48;;;;;;;8.55;2.95;;;;;;;19.21;53.97;101531.22;5016605;28;20052;-39
2022/08/06 07:17:28;;;;;;;6.05;3.05;;;;;;;19.53;53.08;101537.72;5022686;28;20426;-39
2022/08/06 07:20:19;;;;;;;5.75;2.72;;;;;;;19.73;52.76;101533.03;5009198;28;20057;-39
2022/08/06 07:22:57;;;;;;;4.05;2.20;;;;;;;19.94;51.52;101538.78;5015923;28;20052;-40
2022/08/06 07:25:47;;;;;;;6.63;2.42;;;;;;;20.11;51.18;101530.63;5019155;28;20069;-39
2022/08/06 07:28:23;;;;;;;4.95;1.92;;;;;;;20.27;50.44;101534.66;5016386;28;20046;-40
2022/08/06 07:30:55;;;;;;;7.03;2.10;;;;;;;20.39;49.45;101540.59;5017732;28;20123;-39
2022/08/06 07:33:30;;;;;;;8.93;2.40;;;;;;;20.51;49.36;101535.09;5012975;28;20049;-39
2022/08/06 07:36:19;;;;;;;4.13;1.98;;;;;;;20.73;48.79;101547.78;5015595;28;20049;-42
2022/08/06 07:38:48;;;;;;;8.05;2.22;;;;;;;20.80;48.22;101541.50;5020718;28;20444;-40
2022/08/06 07:41:17;;;;;;;4.82;1.77;;;;;;;20.95;48.27;101550.00;5014073;28;20050;-40
2022/08/06 07:43:59;;;;;;;6.68;1.88;;;;;;;21.08;47.95;101545.31;5021556;28;20079;-40
2022/08/06 07:46:30;;;;;;;5.68;2.35;;;;;;;21.27;47.32;101547.50;5018991;28;20058;-39
2022/08/06 07:49:02;;;;;;;5.22;2.00;;;;;;;21.42;46.57;101541.00;5012069;28;20046;-39
2022/08/06 07:51:34;;;;;;;4.38;2.28;;;;;;;21.55;45.73;101545.06;5021877;28;20052;-41
2022/08/06 07:54:05;;;;;;;5.05;2.45;;;;;;;21.75;45.52;101535.78;5020358;28;20545;-40
2022/08/06 07:56:40;;;;;;;6.18;2.30;;;;;;;21.93;45.24;101538.88;5016934;28;20052;-39
2022/08/06 07:59:27;;;;;;;6.60;2.00;;;;;;;22.04;44.29;101542.09;5014683;28;20500;-41
2022/08/06 08:01:55;;;;;;;3.30;1.95;;;;;;;22.11;44.67;101536.63;5016500;28;20045;-42
2022/08/06 08:07:21;;;;;;;3.28;1.95;;;;;;;22.15;42.89;101538.28;5000638;28;20070;-40
2022/08/06 08:10:03;;;;;;;3.90;1.58;;;;;;;22.13;42.94;101535.69;5001171;28;20050;-40
2022/08/06 08:12:31;;;;;;;4.55;2.00;;;;;;;22.08;42.00;101543.72;5006982;28;20050;-40
2022/08/06 08:15:04;;;;;;;3.22;1.75;;;;;;;22.08;41.70;101533.16;5006560;28;20049;-41
2022/08/06 08:17:33;;;;;;;5.88;1.67;;;;;;;22.12;41.48;101538.38;5006628;28;20045;-42
2022/08/06 08:20:04;;;;;;;3.17;1.52;;;;;;;22.12;41.66;101541.00;4996424;28;20161;-42
2022/08/06 08:22:44;;;;;;;4.85;1.65;;;;;;;22.21;42.12;101543.38;5006557;28;20100;-41
2022/08/06 08:25:17;;;;;;;5.45;1.95;;;;;;;22.31;41.03;101539.59;5004293;28;20112;-41
2022/08/06 08:28:04;;;;;;;7.43;2.35;;;;;;;22.34;41.24;101543.91;5004742;28;20572;-41
2022/08/06 08:30:40;;;;;;;3.70;1.83;;;;;;;22.43;41.14;101550.69;5003359;28;20056;-47
2022/08/06 08:33:07;;;;;;;4.70;2.10;;;;;;;22.55;41.36;101546.81;5005441;28;20070;-41
2022/08/06 08:35:37;;;;;;;5.47;1.92;;;;;;;22.62;40.67;101547.56;4999742;28;20042;-41
2022/08/06 08:38:04;;;;;;;3.97;2.13;;;;;;;22.58;40.03;101547.66;5008457;28;20049;-42
2022/08/06 08:40:35;;;;;;;4.03;2.10;;;;;;;22.31;39.61;101546.63;5005141;28;20406;-40
2022/08/06 08:43:03;;;;;;;6.28;2.10;;;;;;;22.07;40.07;101551.69;5005686;28;20050;-42
2022/08/06 08:45:32;;;;;;;4.35;2.00;;;;;;;21.86;40.54;101558.41;5006690;28;20482;-40
2022/08/06 08:48:03;;;;;;;4.40;2.28;;;;;;;21.79;40.48;101552.41;5001909;28;20108;-41
2022/08/06 08:50:32;;;;;;;4.30;1.85;;;;;;;21.90;41.10;101555.66;4997339;28;20045;-41
2022/08/06 08:53:06;;;;;;;3.95;2.03;;;;;;;22.09;40.52;101556.00;5006988;28;20043;-41
2022/08/06 08:55:35;;;;;;;4.47;2.38;;;;;;;22.33;40.36;101558.03;5008340;28;20080;-43
2022/08/06 08:58:22;;;;;;;5.32;1.63;;;;;;;22.54;39.66;101556.53;5011223;28;20131;-41
2022/08/06 09:01:09;;;;;;;10.60;1.85;;;;;;;22.76;39.35;101555.91;5005986;28;20086;-44
2022/08/06 09:03:57;;;;;;;3.63;1.48;;;;;;;23.05;39.80;101551.53;5002691;28;20046;-41
2022/08/06 09:06:24;;;;;;;5.35;1.48;;;;;;;23.41;38.83;101560.13;4999554;28;20149;-42
2022/08/06 09:09:02;;;;;;;3.30;2.05;;;;;;;23.73;38.00;101558.16;5002290;28;20405;-42
2022/08/06 09:11:32;;;;;;;2.67;1.23;;;;;;;24.00;37.53;101550.19;5003600;28;20160;-41
2022/08/06 09:14:19;;;;;;;3.72;1.40;;;;;;;24.34;36.96;101553.44;5008731;28;20073;-42
2022/08/06 09:16:46;;;;;;;5.03;1.60;;;;;;;24.43;35.97;101549.56;4999882;28;20045;-42
2022/08/06 09:19:16;;;;;;;3.42;1.67;;;;;;;24.43;35.65;101546.94;5006180;28;20178;-44
2022/08/06 09:21:46;;;;;;;4.55;1.67;;;;;;;24.47;36.60;101548.53;4998012;28;20509;-42
2022/08/06 09:24:16;;;;;;;4.90;2.90;;;;;;;24.73;35.98;101549.34;5006641;28;20066;-42
2022/08/06 09:27:08;;;;;;;3.55;1.85;;;;;;;24.92;34.97;101553.97;5002081;28;20490;-42
2022/08/06 09:29:57;;;;;;;4.93;1.92;;;;;;;25.01;35.46;101553.56;5002974;28;20415;-42
2022/08/06 09:32:43;;;;;;;4.28;2.17;;;;;;;25.04;34.63;101564.06;5005943;28;20050;-44
2022/08/06 09:35:26;;;;;;;5.03;1.80;;;;;;;25.05;34.60;101554.34;5003375;28;20035;-46
2022/08/06 09:38:12;;;;;;;4.43;2.13;;;;;;;25.22;34.87;101550.97;4997459;28;20042;-43
2022/08/06 09:41:01;;;;;;;3.90;1.70;;;;;;;25.48;34.77;101559.66;4999982;28;20049;-42
2022/08/06 09:43:28;;;;;;;5.05;1.90;;;;;;;25.73;34.26;101550.69;5007830;28;20057;-43
2022/08/06 09:46:16;;;;;;;2.85;1.40;;;;;;;25.95;33.62;101549.75;5001988;28;20085;-42
2022/08/06 09:49:00;;;;;;;4.75;3.53;;;;;;;26.08;34.39;101553.59;4999299;28;20310;-42
2022/08/06 09:51:47;;;;;;;5.38;2.70;;;;;;;26.25;34.13;101551.97;5001999;28;20422;-47
2022/08/06 09:54:17;;;;;;;6.38;2.45;;;;;;;26.26;33.73;101549.25;5006439;28;20553;-43
2022/08/06 09:56:58;;;;;;;5.60;2.15;;;;;;;26.41;33.81;101553.00;5008752;28;20041;-43
2022/08/06 09:59:25;;;;;;;6.63;1.95;;;;;;;26.56;33.79;101555.91;4994567;28;20070;-44
2022/08/06 10:01:57;;;;;;;3.10;2.22;;;;;;;26.65;32.97;101550.13;5003311;28;20556;-43
2022/08/06 10:04:26;;;;;;;5.20;1.90;;;;;;;26.72;33.18;101547.19;5008246;28;20053;-43
2022/08/06 10:07:03;;;;;;;4.90;1.80;;;;;;;26.78;32.77;101554.91;4997135;28;20664;-44
2022/08/06 10:09:36;;;;;;;3.30;2.10;;;;;;;26.82;33.46;101545.84;4998068;28;21329;-44
2022/08/06 10:12:20;;;;;;;3.65;1.75;;;;;;;26.78;33.05;101546.94;5005641;28;20065;-41
2022/08/06 10:14:52;;;;;;;5.53;1.98;;;;;;;26.80;32.49;101531.75;4992839;28;20133;-42
2022/08/06 10:17:23;;;;;;;4.03;2.00;;;;;;;26.80;32.79;101537.06;5003579;28;20057;-42
2022/08/06 10:20:13;;;;;;;2.65;1.65;;;;;;;26.83;32.95;101547.56;5002059;28;20048;-42
2022/08/06 10:22:56;;;;;;;4.82;1.90;;;;;;;26.84;33.26;101538.63;5004553;28;20053;-43
2022/08/06 10:25:25;;;;;;;4.18;2.00;;;;;;;26.97;33.27;101543.38;5002406;28;20053;-42
2022/08/06 10:27:56;;;;;;;3.47;2.53;;;;;;;26.78;32.66;101544.28;4985032;28;20073;-45
2022/08/06 10:30:23;;;;;;;4.00;1.80;;;;;;;26.64;33.25;101531.63;5006115;28;20479;-42
2022/08/06 10:32:58;;;;;;;5.15;2.30;;;;;;;26.63;33.09;101545.84;5001206;28;20042;-43
2022/08/06 10:35:26;;;;;;;3.95;2.28;;;;;;;26.58;33.38;101542.53;4995988;28;20039;-42
2022/08/06 10:38:00;;;;;;;4.50;2.58;;;;;;;26.61;33.53;101543.25;5006347;28;20054;-42
2022/08/06 10:40:30;;;;;;;5.43;1.92;;;;;;;26.77;33.57;101537.22;5000585;28;20066;-41
2022/08/06 10:43:03;;;;;;;4.10;1.90;;;;;;;27.04;34.03;101539.50;5002056;28;20081;-44
2022/08/06 10:45:35;;;;;;;5.13;1.98;;;;;;;27.19;33.13;101538.75;5005219;28;20050;-43
2022/08/06 10:48:16;;;;;;;3.70;2.03;;;;;;;27.25;32.45;101542.06;5005061;28;20427;-41
2022/08/06 10:51:05;;;;;;;3.72;1.98;;;;;;;27.27;32.78;101535.72;4988031;28;20135;-41
2022/08/06 10:53:34;;;;;;;;;;;;;;;27.24;32.71;101529.66;5003280;28;20057;-46
2022/08/06 10:56:21;;;;;;;4.43;2.08;;;;;;;27.55;32.88;101528.13;5001940;28;19961;-44
2022/08/06 10:58:57;;;;;;;5.40;2.35;;;;;;;27.65;31.47;101529.41;4996969;28;20112;-48
2022/08/06 11:01:46;;;;;;;4.90;1.90;;;;;;;27.55;31.28;101522.78;5004715;28;20045;-42
2022/08/06 11:12:41;;;;;;;5.32;2.67;;;;;;;27.11;30.10;101530.28;5065461;27;20387;-40
2022/08/06 11:15:14;;;;;;;4.57;2.45;;;;;;;27.06;31.41;101522.53;5022035;27;20927;-40
2022/08/06 11:17:43;;;;;;;2.75;1.83;;;;;;;27.17;32.04;101524.69;5017420;28;20552;-41
2022/08/06 11:31:48;;;;;;;3.00;2.00;;;;;;;27.38;31.37;101524.53;5101889;27;20377;-40
2022/08/06 11:36:59;;;;;;;3.90;2.40;;;;;;;27.61;31.01;101514.50;5065034;27;20384;-41
2022/08/06 11:40:07;;;;;;;4.97;2.97;;;;;;;27.28;30.46;101520.59;5023660;28;20050;-43
2022/08/06 11:42:43;;;;;;;6.35;2.95;;;;;;;27.15;30.48;101515.91;5039656;28;20104;-40
2022/08/06 11:45:17;;;;;;;4.90;3.45;;;;;;;27.07;31.11;101520.75;5023936;28;20474;-45
2022/08/06 11:48:06;;;;;;;4.43;1.95;;;;;;;27.01;30.38;101507.75;5013848;28;20481;-40
2022/08/06 11:50:53;;;;;;;7.47;3.33;;;;;;;26.94;31.21;101501.84;5019986;28;20103;-41
2022/08/06 11:53:37;;;;;;;3.85;3.25;;;;;;;26.89;30.91;101502.09;5020611;28;20115;-44
2022/08/06 11:56:18;;;;;;;5.05;2.75;;;;;;;26.92;31.22;101485.97;5018968;28;20050;-41
2022/08/06 11:59:11;;;;;;;3.70;2.90;;;;;;;27.04;32.19;101488.97;5016946;28;20064;-41
2022/08/06 12:01:48;;;;;;;6.10;3.15;;;;;;;27.15;31.67;101489.31;5010302;28;20048;-40
2022/08/06 12:07:28;;;;;;;3.78;2.08;;;;;;;27.05;31.88;101483.59;5057431;27;20380;-41
2022/08/06 12:25:48;;;;;;;5.35;3.05;;;;;;;26.80;32.20;101467.97;5051296;28;20921;-44
2022/08/06 12:28:17;;;;;;;3.53;2.85;;;;;;;26.84;31.53;101472.19;5026502;28;20103;-46
2022/08/06 12:36:00;;;;;;;4.30;2.58;;;;;;;27.06;31.30;101473.84;5030497;27;20406;-43
2022/08/06 12:38:31;;;;;;;3.75;3.35;;;;;;;26.95;31.37;101472.53;5025691;28;20044;-41
2022/08/06 12:40:59;;;;;;;;;;;;;;;26.69;31.01;101471.16;5021612;28;20049;-41
2022/08/06 12:43:28;;;;;;;4.70;3.38;;;;;;;26.82;31.63;101471.44;5024575;28;19928;-45
2022/08/06 12:46:15;;;;;;;3.25;2.95;;;;;;;26.80;31.69;101467.97;5024785;28;20124;-41
2022/08/06 12:48:48;;;;;;;3.90;3.00;;;;;;;26.62;30.77;101467.94;5023595;28;20046;-42
2022/08/06 12:51:15;;;;;;;5.60;1.85;;;;;;;26.55;30.77;101469.16;5019979;28;20399;-40
2022/08/06 12:53:54;;;;;;;5.60;2.90;;;;;;;26.46;30.65;101459.84;5023560;28;20049;-42
2022/08/06 12:56:24;;;;;;;5.72;3.30;;;;;;;26.41;31.03;101457.41;5023813;28;20053;-41
2022/08/06 12:59:00;;;;;;;3.28;2.85;;;;;;;26.45;31.49;101463.44;5022055;28;20057;-42
2022/08/06 13:01:29;;;;;;;3.47;1.65;;;;;;;26.47;31.12;101455.41;5022577;28;20390;-42
2022/08/06 13:04:20;;;;;;;3.85;3.05;;;;;;;26.53;31.08;101460.41;5017735;28;20105;-40
2022/08/06 13:06:48;;;;;;;3.58;2.72;;;;;;;26.69;30.94;101458.72;5026614;28;20133;-41
2022/08/06 13:09:18;;;;;;;5.20;3.13;;;;;;;26.81;31.13;101451.06;5020104;28;20041;-42
2022/08/06 13:11:46;;;;;;;5.53;3.42;;;;;;;26.79;30.51;101450.31;5024801;28;20042;-40
2022/08/06 13:14:17;;;;;;;3.25;2.88;;;;;;;26.82;30.55;101455.47;5025635;28;20482;-44
2022/08/06 13:16:47;;;;;;;3.13;2.75;;;;;;;26.77;30.65;101460.13;5020355;28;20061;-46
2022/08/06 13:19:22;;;;;;;5.22;2.90;;;;;;;26.69;30.28;101453.41;5023480;28;20074;-40
2022/08/06 13:22:05;;;;;;;;;;;;;;;26.51;31.35;101444.53;5020492;28;20080;-40
2022/08/06 13:24:32;;;;;;;4.85;2.83;;;;;;;26.75;31.32;101448.75;5018296;28;19989;-41
2022/08/06 13:27:01;;;;;;;4.63;3.08;;;;;;;26.72;30.74;101443.56;5022044;28;20042;-42
2022/08/06 13:29:34;;;;;;;9.32;3.72;;;;;;;26.80;31.12;101438.72;5021185;28;20103;-41
2022/08/06 13:32:25;;;;;;;5.22;2.80;;;;;;;26.93;30.39;101437.19;5020615;28;20084;-42
2022/08/06 13:35:02;;;;;;;4.05;2.90;;;;;;;26.91;29.80;101432.88;5022782;28;20058;-42
2022/08/06 13:37:50;;;;;;;4.32;3.22;;;;;;;26.75;29.73;101427.47;5023628;28;20045;-41
2022/08/06 13:45:53;;;;;;;5.07;2.15;;;;;;;26.82;30.46;101418.28;5047051;28;20408;-41
2022/08/06 13:48:25;;;;;;;3.55;1.60;;;;;;;26.77;30.32;101420.28;5047028;28;20501;-41